Time;durP1;ratioP1;P1;durP2;ratioP2;P2;SDS_P1;SDS_P2;PMS_P1;PMS_P2;Temp;Humidity;BMP_temperature;BMP_pressure;BME280_temperature;BME280_humidity;BME280_pressure;Samples;Min_cycle;Max_cycle;Signal;HPM_P1;HPM_P2
2024/04/01 00:01:22;;;;;;;5.72;2.20;;;;;;;;;;4949607;28;95544;-76
2024/04/01 00:03:48;;;;;;;7.07;2.08;;;;;;;;;;4948957;28;92604;-77
2024/04/01 00:06:13;;;;;;;7.35;2.65;;;;;;;;;;4949708;28;93757;-76
2024/04/01 00:08:39;;;;;;;5.93;1.80;;;;;;;;;;4950044;28;92431;-76
2024/04/01 00:11:04;;;;;;;5.50;2.08;;;;;;;;;;4949401;28;93522;-76
2024/04/01 00:13:30;;;;;;;6.35;2.03;;;;;;;;;;4952111;28;92943;-76
2024/04/01 00:15:56;;;;;;;7.63;2.10;;;;;;;;;;4948425;28;95215;-77
2024/04/01 00:18:22;;;;;;;6.70;1.85;;;;;;;;;;4933070;28;95148;-78
2024/04/01 00:20:57;;;;;;;6.25;2.20;;;;;;;;;;4948968;28;93104;-77
2024/04/01 00:23:23;;;;;;;9.50;2.00;;;;;;;;;;4951332;28;92887;-77
2024/04/01 00:25:49;;;;;;;8.52;2.22;;;;;;;;;;4948212;28;93254;-77
2024/04/01 00:28:14;;;;;;;8.15;2.03;;;;;;;;;;4948803;28;92811;-77
2024/04/01 00:30:40;;;;;;;5.22;2.13;;;;;;;;;;4949158;28;92745;-76
2024/04/01 00:33:07;;;;;;;6.85;1.98;;;;;;;;;;4950095;28;92617;-77
2024/04/01 00:35:36;;;;;;;7.07;2.38;;;;;;;;;;4950769;28;93141;-76
2024/04/01 00:38:02;;;;;;;5.38;1.90;;;;;;;;;;4948443;28;93967;-76
2024/04/01 00:40:28;;;;;;;4.47;1.85;;;;;;;;;;4947057;28;95954;-80
2024/04/01 00:43:02;;;;;;;6.38;2.08;;;;;;;;;;4950448;28;93152;-80
2024/04/01 00:45:28;;;;;;;6.22;2.10;;;;;;;;;;4949628;28;93036;-79
2024/04/01 00:47:53;;;;;;;4.78;2.00;;;;;;;;;;4948772;28;93209;-79
2024/04/01 00:50:19;;;;;;;6.40;1.90;;;;;;;;;;4949297;28;92795;-78
2024/04/01 00:52:44;;;;;;;5.95;1.80;;;;;;;;;;4949758;28;92995;-79
2024/04/01 00:55:10;;;;;;;8.00;2.08;;;;;;;;;;4949244;28;93602;-79
2024/04/01 00:57:35;;;;;;;6.78;1.70;;;;;;;;;;4955995;28;92436;-79
2024/04/01 01:00:01;;;;;;;4.80;1.90;;;;;;;;;;4952601;28;93607;-79
2024/04/01 01:02:29;;;;;;;4.65;1.73;;;;;;;;;;4953252;28;92998;-79
2024/04/01 01:04:55;;;;;;;6.13;1.83;;;;;;;;;;4951397;28;95183;-79
2024/04/01 01:07:21;;;;;;;6.78;2.00;;;;;;;;;;4951695;28;93022;-78
2024/04/01 01:09:47;;;;;;;6.97;1.95;;;;;;;;;;4951071;28;92852;-78
2024/04/01 01:12:14;;;;;;;6.05;1.92;;;;;;;;;;4950891;28;93243;-80
2024/04/01 01:14:39;;;;;;;4.47;1.75;;;;;;;;;;4949143;28;93367;-77
2024/04/01 01:17:05;;;;;;;9.20;2.00;;;;;;;;;;4949086;28;92543;-77
2024/04/01 01:19:31;;;;;;;7.78;1.98;;;;;;;;;;4951595;28;93266;-76
2024/04/01 01:22:03;;;;;;;5.60;1.83;;;;;;;;;;4950105;28;92223;-78
2024/04/01 01:24:30;;;;;;;7.38;2.00;;;;;;;;;;4948850;28;92746;-78
2024/04/01 01:26:56;;;;;;;6.35;1.52;;;;;;;;;;4949819;28;94095;-79
2024/04/01 01:29:21;;;;;;;4.82;1.52;;;;;;;;;;4947516;28;95177;-78
2024/04/01 01:31:47;;;;;;;5.30;1.90;;;;;;;;;;4948278;28;96301;-78
2024/04/01 01:34:12;;;;;;;6.78;1.90;;;;;;;;;;4941657;28;93746;-78
2024/04/01 01:36:38;;;;;;;5.07;1.52;;;;;;;;;;4948043;28;92983;-78
2024/04/01 01:39:05;;;;;;;5.07;1.88;;;;;;;;;;4948895;28;92873;-78
2024/04/01 01:41:31;;;;;;;4.93;1.55;;;;;;;;;;4950202;28;94166;-74
2024/04/01 01:43:56;;;;;;;7.00;1.95;;;;;;;;;;4948623;28;93160;-78
2024/04/01 01:46:22;;;;;;;8.57;2.00;;;;;;;;;;4948889;28;92425;-78
2024/04/01 01:48:47;;;;;;;6.50;1.70;;;;;;;;;;4947963;28;93129;-79
2024/04/01 01:51:13;;;;;;;7.85;1.70;;;;;;;;;;4947790;28;93021;-77
2024/04/01 01:53:38;;;;;;;7.72;1.80;;;;;;;;;;4945779;28;96014;-78
2024/04/01 01:56:04;;;;;;;4.55;1.70;;;;;;;;;;4948134;28;92940;-78
2024/04/01 01:58:29;;;;;;;8.20;1.90;;;;;;;;;;4931722;28;96334;-78
2024/04/01 02:00:56;;;;;;;5.13;1.80;;;;;;;;;;4948318;28;93094;-78
2024/04/01 02:03:21;;;;;;;4.28;1.70;;;;;;;;;;4951294;28;92655;-79
2024/04/01 02:05:49;;;;;;;5.85;1.83;;;;;;;;;;4947153;28;93169;-80
2024/04/01 02:08:15;;;;;;;4.95;1.75;;;;;;;;;;4951766;28;92813;-78
2024/04/01 02:10:40;;;;;;;4.10;1.83;;;;;;;;;;4935978;28;92785;-79
2024/04/01 02:13:09;;;;;;;5.30;1.73;;;;;;;;;;4951600;28;93229;-79
2024/04/01 02:15:34;;;;;;;6.20;1.70;;;;;;;;;;4950863;28;92860;-78
2024/04/01 02:18:00;;;;;;;5.28;1.60;;;;;;;;;;4933665;28;95435;-78
2024/04/01 02:20:26;;;;;;;5.57;1.60;;;;;;;;;;4951633;28;93178;-81
2024/04/01 02:22:52;;;;;;;5.07;1.50;;;;;;;;;;4954108;28;92843;-80
2024/04/01 02:25:17;;;;;;;3.22;1.50;;;;;;;;;;4950572;28;93026;-79
2024/04/01 02:27:47;;;;;;;7.97;1.98;;;;;;;;;;4950287;28;92756;-79
2024/04/01 02:30:12;;;;;;;4.70;1.70;;;;;;;;;;4950573;28;92798;-79
2024/04/01 02:32:38;;;;;;;5.18;1.75;;;;;;;;;;4945653;28;93052;-79
2024/04/01 02:35:04;;;;;;;5.53;1.60;;;;;;;;;;4938215;28;91783;-80
2024/04/01 02:37:29;;;;;;;6.72;1.58;;;;;;;;;;4950389;28;93055;-79
2024/04/01 02:39:55;;;;;;;4.65;1.75;;;;;;;;;;4950539;28;92997;-78
2024/04/01 02:42:20;;;;;;;5.93;1.60;;;;;;;;;;4949477;28;95354;-78
2024/04/01 02:44:46;;;;;;;3.95;1.70;;;;;;;;;;4944730;28;96714;-78
2024/04/01 02:47:11;;;;;;;5.60;1.58;;;;;;;;;;4932966;28;92790;-79
2024/04/01 02:49:37;;;;;;;6.15;1.83;;;;;;;;;;4949905;28;93432;-80
2024/04/01 02:52:02;;;;;;;6.15;1.60;;;;;;;;;;4950917;28;93124;-80
2024/04/01 02:54:28;;;;;;;4.78;1.60;;;;;;;;;;4950675;28;92923;-81
2024/04/01 02:56:54;;;;;;;4.65;1.85;;;;;;;;;;4950878;28;92978;-81
2024/04/01 02:59:20;;;;;;;4.70;1.50;;;;;;;;;;4951002;28;93058;-78
2024/04/01 03:01:45;;;;;;;5.57;1.48;;;;;;;;;;4950449;28;92996;-78
2024/04/01 03:04:11;;;;;;;4.38;1.50;;;;;;;;;;4950714;28;92848;-80
2024/04/01 03:06:36;;;;;;;6.82;1.45;;;;;;;;;;4951758;28;98033;-79
2024/04/01 03:09:02;;;;;;;5.18;1.55;;;;;;;;;;4950262;28;95370;-80
2024/04/01 03:11:28;;;;;;;5.60;1.70;;;;;;;;;;4949600;28;93063;-79
2024/04/01 03:13:54;;;;;;;5.43;1.77;;;;;;;;;;4950274;28;92867;-79
2024/04/01 03:16:20;;;;;;;5.43;1.60;;;;;;;;;;4950484;28;92864;-80
2024/04/01 03:18:45;;;;;;;4.78;1.65;;;;;;;;;;4949734;28;93149;-80
2024/04/01 03:21:12;;;;;;;4.70;1.60;;;;;;;;;;4950589;28;92662;-79
2024/04/01 03:23:37;;;;;;;6.20;1.70;;;;;;;;;;4950209;28;91694;-77
2024/04/01 03:26:03;;;;;;;5.93;1.50;;;;;;;;;;4949516;28;93676;-77
2024/04/01 03:28:28;;;;;;;3.85;1.40;;;;;;;;;;4953184;28;92761;-77
2024/04/01 03:30:54;;;;;;;4.45;1.60;;;;;;;;;;4945260;28;96557;-78
2024/04/01 03:33:20;;;;;;;3.38;1.42;;;;;;;;;;4931066;28;92871;-80
2024/04/01 03:35:45;;;;;;;4.18;1.70;;;;;;;;;;4941926;28;92682;-78
2024/04/01 03:38:11;;;;;;;7.55;1.55;;;;;;;;;;4950668;28;93225;-76
2024/04/01 03:40:40;;;;;;;3.95;1.42;;;;;;;;;;4949809;28;92686;-78
2024/04/01 03:43:08;;;;;;;3.83;1.35;;;;;;;;;;4950305;28;92915;-79
2024/04/01 03:45:34;;;;;;;6.72;1.40;;;;;;;;;;4949572;28;93160;-79
2024/04/01 03:48:00;;;;;;;3.70;1.38;;;;;;;;;;4952497;28;92156;-78
2024/04/01 03:50:25;;;;;;;4.18;1.50;;;;;;;;;;4954638;28;92783;-78
2024/04/01 03:52:51;;;;;;;3.90;1.45;;;;;;;;;;4953207;28;92423;-79
2024/04/01 03:55:17;;;;;;;3.75;1.60;;;;;;;;;;4948329;28;94970;-79
2024/04/01 03:57:42;;;;;;;3.83;1.40;;;;;;;;;;4949262;28;93538;-79
2024/04/01 04:00:08;;;;;;;3.35;1.23;;;;;;;;;;4949865;28;92616;-79
2024/04/01 04:02:34;;;;;;;2.60;1.40;;;;;;;;;;4950845;28;92774;-79
2024/04/01 04:04:59;;;;;;;3.78;1.40;;;;;;;;;;4934841;28;100584;-78
2024/04/01 04:07:27;;;;;;;4.18;1.48;;;;;;;;;;4954538;28;92695;-74
2024/04/01 04:09:53;;;;;;;2.92;1.40;;;;;;;;;;4953790;28;92830;-80
2024/04/01 04:12:18;;;;;;;3.25;1.23;;;;;;;;;;4937729;28;95003;-80
2024/04/01 04:14:43;;;;;;;3.88;1.40;;;;;;;;;;4951401;28;92796;-79
2024/04/01 04:17:09;;;;;;;4.15;1.58;;;;;;;;;;4950420;28;92957;-79
2024/04/01 04:19:34;;;;;;;5.25;1.60;;;;;;;;;;4949361;28;96067;-79
2024/04/01 04:22:00;;;;;;;3.88;1.50;;;;;;;;;;4950192;28;96454;-78
2024/04/01 04:24:28;;;;;;;3.42;1.23;;;;;;;;;;4952393;28;93035;-78
2024/04/01 04:26:54;;;;;;;3.78;1.30;;;;;;;;;;4950760;28;92978;-78
2024/04/01 04:29:20;;;;;;;4.18;1.30;;;;;;;;;;4949234;28;92846;-78
2024/04/01 04:31:53;;;;;;;3.55;1.45;;;;;;;;;;4932867;28;92440;-78
2024/04/01 04:34:19;;;;;;;;;;;;;;;;;;4914321;28;95493;-79
2024/04/01 04:36:45;;;;;;;2.83;1.20;;;;;;;;;;4941564;28;93129;-79
2024/04/01 04:39:19;;;;;;;3.67;1.50;;;;;;;;;;4969744;28;92956;-79
2024/04/01 04:41:47;;;;;;;2.63;1.25;;;;;;;;;;4958068;28;92841;-78
2024/04/01 04:44:12;;;;;;;3.25;1.40;;;;;;;;;;4947778;28;95895;-79
2024/04/01 04:46:38;;;;;;;5.43;1.40;;;;;;;;;;4949269;28;92903;-79
2024/04/01 04:49:03;;;;;;;4.20;1.45;;;;;;;;;;4949975;28;93099;-79
2024/04/01 04:51:29;;;;;;;5.50;1.50;;;;;;;;;;4950281;28;93046;-76
2024/04/01 04:53:54;;;;;;;2.78;1.25;;;;;;;;;;4936153;28;93212;-77
2024/04/01 04:56:20;;;;;;;5.35;1.40;;;;;;;;;;4934199;28;94781;-78
2024/04/01 04:58:46;;;;;;;5.18;1.50;;;;;;;;;;4950078;28;93100;-77
2024/04/01 05:01:11;;;;;;;3.90;1.50;;;;;;;;;;4933601;28;95850;-77
2024/04/01 05:03:37;;;;;;;2.30;1.20;;;;;;;;;;4949027;28;94121;-76
2024/04/01 05:06:02;;;;;;;5.28;1.55;;;;;;;;;;4949851;28;92487;-76
2024/04/01 05:08:28;;;;;;;4.43;1.45;;;;;;;;;;4947842;28;95299;-77
2024/04/01 05:10:54;;;;;;;5.80;1.70;;;;;;;;;;4950056;28;93125;-81
2024/04/01 05:13:20;;;;;;;5.70;1.35;;;;;;;;;;4950390;28;92491;-80
2024/04/01 05:15:48;;;;;;;3.22;1.40;;;;;;;;;;4952829;28;92909;-81
2024/04/01 05:18:14;;;;;;;4.80;1.23;;;;;;;;;;4950489;28;92669;-80
2024/04/01 05:20:39;;;;;;;5.15;1.50;;;;;;;;;;4933933;28;95408;-79
2024/04/01 05:23:05;;;;;;;5.65;1.38;;;;;;;;;;4951377;28;93670;-79
2024/04/01 05:25:31;;;;;;;2.55;1.30;;;;;;;;;;4952173;28;91925;-80
2024/04/01 05:27:58;;;;;;;5.03;1.50;;;;;;;;;;4952650;28;92591;-78
2024/04/01 05:30:24;;;;;;;6.25;1.25;;;;;;;;;;4949942;28;93054;-80
2024/04/01 05:32:49;;;;;;;4.40;1.33;;;;;;;;;;4933411;28;95179;-78
2024/04/01 05:35:19;;;;;;;2.60;1.30;;;;;;;;;;4930881;28;95257;-80
2024/04/01 05:37:45;;;;;;;2.75;1.10;;;;;;;;;;4951519;28;93209;-77
2024/04/01 05:40:12;;;;;;;4.95;1.40;;;;;;;;;;4949572;28;93072;-78
2024/04/01 05:42:37;;;;;;;3.40;1.30;;;;;;;;;;4951540;28;93138;-77
2024/04/01 05:45:03;;;;;;;3.88;1.38;;;;;;;;;;4952080;28;92693;-77
2024/04/01 05:47:28;;;;;;;2.83;1.33;;;;;;;;;;4951321;28;92908;-76
2024/04/01 05:49:54;;;;;;;5.40;1.30;;;;;;;;;;4951486;28;93328;-76
2024/04/01 05:52:19;;;;;;;3.47;1.50;;;;;;;;;;4952191;28;92941;-76
2024/04/01 05:54:45;;;;;;;4.57;1.27;;;;;;;;;;4952983;28;92958;-76
2024/04/01 05:57:10;;;;;;;3.95;1.70;;;;;;;;;;4953055;28;95588;-76
2024/04/01 05:59:36;;;;;;;4.07;1.38;;;;;;;;;;4957846;28;92936;-77
2024/04/01 06:02:02;;;;;;;5.32;1.50;;;;;;;;;;4938781;28;93011;-78
2024/04/01 06:04:27;;;;;;;4.35;1.30;;;;;;;;;;4940069;28;92952;-79
2024/04/01 06:06:53;;;;;;;5.15;1.42;;;;;;;;;;4956665;28;92861;-80
2024/04/01 06:09:18;;;;;;;5.70;1.50;;;;;;;;;;4953104;28;93193;-78
2024/04/01 06:11:44;;;;;;;3.47;1.10;;;;;;;;;;4951824;28;92435;-78
2024/04/01 06:14:10;;;;;;;3.22;1.20;;;;;;;;;;4954060;28;92170;-77
2024/04/01 06:16:36;;;;;;;2.38;1.30;;;;;;;;;;4951815;28;93379;-78
2024/04/01 06:19:02;;;;;;;3.10;1.38;;;;;;;;;;4952817;28;92782;-77
2024/04/01 06:21:28;;;;;;;5.65;1.50;;;;;;;;;;4953256;28;94830;-83
2024/04/01 06:23:53;;;;;;;7.88;1.48;;;;;;;;;;4951937;28;92645;-80
2024/04/01 06:26:19;;;;;;;7.70;1.50;;;;;;;;;;4936372;28;92996;-83
2024/04/01 06:28:45;;;;;;;10.10;1.58;;;;;;;;;;4924362;28;95586;-80
2024/04/01 06:31:10;;;;;;;4.68;1.20;;;;;;;;;;4932637;28;92826;-80
2024/04/01 06:33:36;;;;;;;3.20;1.23;;;;;;;;;;4932379;28;93503;-82
2024/04/01 06:36:02;;;;;;;4.40;1.40;;;;;;;;;;4937314;28;93316;-77
2024/04/01 06:38:29;;;;;;;4.35;1.23;;;;;;;;;;4952863;28;91720;-78
2024/04/01 06:40:55;;;;;;;7.10;1.35;;;;;;;;;;4955099;28;92779;-80
2024/04/01 06:43:20;;;;;;;4.85;1.40;;;;;;;;;;4951633;28;92866;-78
2024/04/01 06:45:53;;;;;;;5.60;1.40;;;;;;;;;;4949857;28;95622;-76
2024/04/01 06:48:18;;;;;;;4.63;1.10;;;;;;;;;;4950381;28;93331;-76
2024/04/01 06:50:44;;;;;;;5.50;1.15;;;;;;;;;;4950266;28;92513;-76
2024/04/01 06:53:09;;;;;;;6.10;1.23;;;;;;;;;;4949003;28;93366;-76
2024/04/01 06:55:35;;;;;;;4.35;1.30;;;;;;;;;;4933793;28;93179;-75
2024/04/01 06:58:01;;;;;;;5.97;1.30;;;;;;;;;;4950418;28;92921;-76
2024/04/01 07:00:26;;;;;;;4.68;1.55;;;;;;;;;;4950526;28;93024;-75
2024/04/01 07:02:52;;;;;;;6.20;1.20;;;;;;;;;;4953547;28;92467;-76
2024/04/01 07:05:17;;;;;;;5.90;1.55;;;;;;;;;;4934257;28;92922;-76
2024/04/01 07:07:43;;;;;;;4.40;1.42;;;;;;;;;;4948974;28;93087;-76
2024/04/01 07:10:08;;;;;;;3.35;1.30;;;;;;;;;;4932176;28;95451;-76
2024/04/01 07:12:34;;;;;;;4.72;1.50;;;;;;;;;;4949666;28;96463;-77
2024/04/01 07:14:59;;;;;;;3.22;1.50;;;;;;;;;;4949834;28;94193;-76
2024/04/01 07:17:25;;;;;;;4.18;1.70;;;;;;;;;;4949701;28;92490;-75
2024/04/01 07:19:50;;;;;;;3.45;1.40;;;;;;;;;;4950858;28;92538;-76
2024/04/01 07:22:16;;;;;;;4.90;1.50;;;;;;;;;;4949276;28;94080;-76
2024/04/01 07:24:41;;;;;;;4.53;1.30;;;;;;;;;;4953111;28;92858;-74
2024/04/01 07:27:07;;;;;;;4.05;1.23;;;;;;;;;;4948046;28;92429;-76
2024/04/01 07:29:33;;;;;;;5.30;1.33;;;;;;;;;;4949384;28;93008;-76
2024/04/01 07:31:58;;;;;;;4.82;1.38;;;;;;;;;;4949968;28;92960;-74
2024/04/01 07:34:24;;;;;;;3.90;1.38;;;;;;;;;;4947695;28;95440;-75
2024/04/01 07:36:49;;;;;;;3.20;1.30;;;;;;;;;;4949317;28;93227;-75
2024/04/01 07:39:16;;;;;;;5.38;1.20;;;;;;;;;;4949822;28;93331;-76
2024/04/01 07:41:42;;;;;;;2.45;1.27;;;;;;;;;;4948230;28;93134;-76
2024/04/01 07:44:07;;;;;;;6.22;1.30;;;;;;;;;;4933584;28;92585;-76
2024/04/01 07:46:33;;;;;;;5.22;1.48;;;;;;;;;;4952933;28;93618;-73
2024/04/01 07:48:58;;;;;;;6.20;1.33;;;;;;;;;;4949429;28;92530;-73
2024/04/01 07:51:24;;;;;;;4.78;1.38;;;;;;;;;;4949678;28;92774;-72
2024/04/01 07:53:49;;;;;;;7.90;1.50;;;;;;;;;;4948168;28;100530;-72
2024/04/01 07:56:15;;;;;;;4.53;1.30;;;;;;;;;;4949481;28;92918;-74
2024/04/01 07:58:40;;;;;;;3.58;1.23;;;;;;;;;;4948038;28;95404;-75
2024/04/01 08:01:08;;;;;;;3.60;1.23;;;;;;;;;;4948649;28;93137;-75
2024/04/01 08:03:33;;;;;;;3.53;1.58;;;;;;;;;;4946136;28;93361;-75
2024/04/01 08:05:59;;;;;;;3.50;1.40;;;;;;;;;;4946603;28;92852;-75
2024/04/01 08:08:24;;;;;;;4.18;1.63;;;;;;;;;;4950493;28;94156;-75
2024/04/01 08:10:50;;;;;;;4.18;1.48;;;;;;;;;;4948320;28;92749;-76
2024/04/01 08:13:15;;;;;;;3.53;1.50;;;;;;;;;;4932196;28;94043;-76
2024/04/01 08:15:41;;;;;;;4.30;1.60;;;;;;;;;;4947700;28;92001;-76
2024/04/01 08:18:07;;;;;;;5.90;1.60;;;;;;;;;;4948449;28;92541;-76
2024/04/01 08:20:32;;;;;;;4.10;1.40;;;;;;;;;;4948674;28;93111;-76
2024/04/01 08:22:58;;;;;;;3.67;1.40;;;;;;;;;;4946255;28;94917;-76
2024/04/01 08:25:23;;;;;;;3.30;1.50;;;;;;;;;;4933276;28;95079;-76
2024/04/01 08:27:49;;;;;;;3.60;1.35;;;;;;;;;;4927837;28;93137;-76
2024/04/01 08:30:15;;;;;;;4.00;1.50;;;;;;;;;;4932293;28;93070;-76
2024/04/01 08:32:40;;;;;;;4.32;1.65;;;;;;;;;;4929029;28;93474;-76
2024/04/01 08:35:06;;;;;;;3.85;1.40;;;;;;;;;;4948065;28;93127;-76
2024/04/01 08:37:32;;;;;;;3.45;1.60;;;;;;;;;;4951074;28;92808;-75
2024/04/01 08:39:57;;;;;;;2.97;1.40;;;;;;;;;;4948537;28;92174;-75
2024/04/01 08:42:25;;;;;;;2.92;1.20;;;;;;;;;;4948584;28;93022;-76
2024/04/01 08:44:52;;;;;;;3.17;1.38;;;;;;;;;;4932726;28;92594;-76
2024/04/01 08:47:18;;;;;;;4.85;1.90;;;;;;;;;;4930255;28;95308;-76
2024/04/01 08:49:59;;;;;;;4.25;1.30;;;;;;;;;;4949986;28;93096;-76
2024/04/01 08:52:25;;;;;;;3.40;1.48;;;;;;;;;;4948188;28;93232;-76
2024/04/01 08:54:51;;;;;;;3.90;1.58;;;;;;;;;;4948248;28;92883;-76
2024/04/01 08:57:17;;;;;;;3.85;1.33;;;;;;;;;;4947943;28;92761;-76
2024/04/01 08:59:43;;;;;;;4.22;1.25;;;;;;;;;;4947356;28;92958;-76
2024/04/01 09:02:08;;;;;;;4.60;1.63;;;;;;;;;;4947777;28;92488;-76
2024/04/01 09:04:34;;;;;;;2.92;1.42;;;;;;;;;;4948825;28;92958;-75
2024/04/01 09:07:00;;;;;;;2.65;1.20;;;;;;;;;;4948062;28;99314;-76
2024/04/01 09:09:26;;;;;;;3.05;1.45;;;;;;;;;;4948181;28;92459;-75
2024/04/01 09:11:53;;;;;;;2.38;1.23;;;;;;;;;;4949391;28;95258;-76
2024/04/01 09:14:19;;;;;;;2.75;1.40;;;;;;;;;;4932086;28;92934;-77
2024/04/01 09:16:48;;;;;;;3.47;1.40;;;;;;;;;;4947514;28;92760;-77
2024/04/01 09:19:15;;;;;;;2.40;1.30;;;;;;;;;;4947850;28;93030;-76
2024/04/01 09:21:41;;;;;;;3.38;1.50;;;;;;;;;;4947825;28;92822;-76
2024/04/01 09:24:06;;;;;;;2.78;1.40;;;;;;;;;;4916256;28;94211;-76
2024/04/01 09:26:32;;;;;;;3.42;1.38;;;;;;;;;;4928493;28;93159;-76
2024/04/01 09:28:58;;;;;;;3.17;1.35;;;;;;;;;;4929857;28;91906;-76
2024/04/01 09:31:24;;;;;;;2.70;1.52;;;;;;;;;;4928788;28;92678;-76
2024/04/01 09:33:49;;;;;;;2.72;1.30;;;;;;;;;;4935209;28;92920;-76
2024/04/01 09:36:16;;;;;;;3.10;1.40;;;;;;;;;;4946872;28;95196;-76
2024/04/01 09:38:41;;;;;;;3.17;1.20;;;;;;;;;;4948114;28;93686;-77
2024/04/01 09:41:07;;;;;;;2.42;1.30;;;;;;;;;;4947341;28;92961;-76
2024/04/01 09:43:33;;;;;;;3.97;1.38;;;;;;;;;;4947424;28;93155;-76
2024/04/01 09:45:59;;;;;;;2.38;1.20;;;;;;;;;;4947204;28;93778;-77
2024/04/01 09:48:28;;;;;;;4.10;1.40;;;;;;;;;;4947124;28;92910;-77
2024/04/01 09:50:54;;;;;;;2.83;1.52;;;;;;;;;;4931067;28;92775;-77
2024/04/01 09:53:20;;;;;;;4.18;1.77;;;;;;;;;;4947780;28;92311;-77
2024/04/01 09:55:52;;;;;;;2.25;1.30;;;;;;;;;;4949987;28;93002;-77
2024/04/01 09:58:33;;;;;;;3.03;1.30;;;;;;;;;;4947307;28;92692;-77
2024/04/01 10:01:09;;;;;;;2.50;1.30;;;;;;;;;;4945202;28;95214;-76
2024/04/01 10:03:53;;;;;;;2.90;1.20;;;;;;;;;;4930332;28;96078;-77
2024/04/01 10:06:25;;;;;;;2.17;1.30;;;;;;;;;;4946891;28;92489;-77
2024/04/01 10:09:09;;;;;;;2.75;1.33;;;;;;;;;;4947709;28;92495;-77
2024/04/01 10:11:35;;;;;;;1.92;1.20;;;;;;;;;;4947976;28;93550;-76
2024/04/01 10:14:03;;;;;;;3.65;1.40;;;;;;;;;;4947373;28;93100;-76
2024/04/01 10:16:47;;;;;;;3.65;1.30;;;;;;;;;;4946846;28;92578;-76
2024/04/01 10:19:34;;;;;;;2.65;1.25;;;;;;;;;;4950520;28;92582;-76
2024/04/01 10:21:59;;;;;;;2.38;1.20;;;;;;;;;;4946704;28;100525;-76
2024/04/01 10:24:43;;;;;;;2.25;1.30;;;;;;;;;;4947451;28;92969;-75
2024/04/01 10:27:28;;;;;;;3.50;1.40;;;;;;;;;;4945189;28;95480;-76
2024/04/01 10:30:14;;;;;;;1.88;1.17;;;;;;;;;;4949539;28;92868;-75
2024/04/01 10:32:39;;;;;;;;;;;;;;;;;;4946405;28;93012;-77
2024/04/01 10:35:24;;;;;;;3.22;1.63;;;;;;;;;;4952068;28;93226;-77
2024/04/01 10:37:49;;;;;;;2.67;1.50;;;;;;;;;;4949575;28;92595;-75
2024/04/01 10:40:44;;;;;;;2.13;1.30;;;;;;;;;;4952956;28;92986;-75
2024/04/01 10:43:43;;;;;;;2.38;1.23;;;;;;;;;;4933696;28;92894;-76
2024/04/01 10:46:23;;;;;;;1.70;1.13;;;;;;;;;;4950029;28;98319;-76
2024/04/01 10:48:55;;;;;;;3.08;1.40;;;;;;;;;;4950211;28;92959;-76
2024/04/01 10:51:37;;;;;;;2.95;1.48;;;;;;;;;;4950610;28;92884;-77
2024/04/01 10:54:07;;;;;;;3.05;1.48;;;;;;;;;;4932131;28;96024;-76
2024/04/01 10:56:35;;;;;;;3.25;1.50;;;;;;;;;;4950852;28;93012;-76
2024/04/01 10:59:01;;;;;;;2.58;1.40;;;;;;;;;;4953349;28;92829;-76
2024/04/01 11:01:45;;;;;;;3.40;1.50;;;;;;;;;;4955482;28;93337;-75
2024/04/01 11:04:20;;;;;;;2.72;1.40;;;;;;;;;;4956838;28;94045;-76
2024/04/01 11:07:01;;;;;;;2.25;1.42;;;;;;;;;;4954248;28;92794;-76
2024/04/01 11:09:35;;;;;;;2.50;1.40;;;;;;;;;;4952622;28;93679;-75
2024/04/01 11:12:39;;;;;;;2.83;1.25;;;;;;;;;;4955941;28;91855;-76
2024/04/01 11:15:05;;;;;;;3.58;1.52;;;;;;;;;;4931961;28;92631;-75
2024/04/01 11:17:33;;;;;;;2.33;1.42;;;;;;;;;;4931450;28;93333;-75
2024/04/01 11:19:59;;;;;;;4.13;1.35;;;;;;;;;;4938072;28;95308;-76
2024/04/01 11:22:35;;;;;;;3.08;1.50;;;;;;;;;;4929965;28;95569;-74
2024/04/01 11:25:10;;;;;;;2.80;1.60;;;;;;;;;;4929886;28;93042;-76
2024/04/01 11:27:54;;;;;;;2.47;1.42;;;;;;;;;;4947474;28;92916;-74
2024/04/01 11:30:26;;;;;;;3.10;1.60;;;;;;;;;;4949191;28;93154;-77
2024/04/01 11:33:11;;;;;;;2.70;1.50;;;;;;;;;;4949286;28;92976;-74
2024/04/01 11:35:37;;;;;;;;;;;;;;;;;;4948571;28;92728;-75
2024/04/01 11:38:02;;;;;;;;;;;;;;;;;;4935147;28;92135;-74
2024/04/01 11:40:30;;;;;;;3.25;1.27;;;;;;;;;;4949467;28;92836;-76
2024/04/01 11:42:59;;;;;;;4.15;1.50;;;;;;;;;;4949460;28;93295;-75
2024/04/01 11:45:27;;;;;;;3.53;1.45;;;;;;;;;;4947490;28;95311;-75
2024/04/01 11:47:53;;;;;;;2.97;1.30;;;;;;;;;;4949003;28;92511;-76
2024/04/01 11:50:19;;;;;;;2.60;1.30;;;;;;;;;;4935342;28;94127;-76
2024/04/01 11:52:58;;;;;;;2.85;1.20;;;;;;;;;;4949355;28;92857;-76
2024/04/01 11:55:25;;;;;;;2.03;1.10;;;;;;;;;;4948515;28;93069;-76
2024/04/01 11:57:51;;;;;;;2.30;1.20;;;;;;;;;;4948244;28;97690;-76
2024/04/01 12:00:16;;;;;;;2.65;1.20;;;;;;;;;;4949538;28;92883;-76
2024/04/01 12:02:52;;;;;;;4.40;1.50;;;;;;;;;;4949503;28;92910;-76
2024/04/01 12:05:17;;;;;;;3.05;1.10;;;;;;;;;;4948647;28;93151;-76
2024/04/01 12:07:43;;;;;;;3.17;1.27;;;;;;;;;;4948121;28;92680;-76
2024/04/01 12:10:13;;;;;;;2.90;1.20;;;;;;;;;;4947212;28;95025;-77
2024/04/01 12:12:39;;;;;;;3.42;1.35;;;;;;;;;;4951972;28;93695;-76
2024/04/01 12:15:05;;;;;;;2.25;1.40;;;;;;;;;;4948653;28;99894;-76
2024/04/01 12:17:31;;;;;;;3.05;1.25;;;;;;;;;;4948566;28;93709;-76
2024/04/01 12:19:57;;;;;;;3.75;1.30;;;;;;;;;;4932041;28;92839;-76
2024/04/01 12:22:26;;;;;;;3.58;1.40;;;;;;;;;;4932022;28;92851;-76
2024/04/01 12:24:51;;;;;;;2.35;1.13;;;;;;;;;;4948679;28;93785;-76
2024/04/01 12:27:17;;;;;;;3.58;1.35;;;;;;;;;;4948992;28;92228;-76
2024/04/01 12:29:43;;;;;;;2.45;1.35;;;;;;;;;;4947595;28;92681;-76
2024/04/01 12:32:09;;;;;;;2.55;1.33;;;;;;;;;;4948950;28;93083;-76
2024/04/01 12:34:39;;;;;;;3.00;1.35;;;;;;;;;;4949745;28;95401;-76
2024/04/01 12:37:08;;;;;;;2.28;1.20;;;;;;;;;;4940435;28;93631;-76
2024/04/01 12:39:40;;;;;;;2.70;1.10;;;;;;;;;;4928264;28;93135;-76
2024/04/01 12:42:06;;;;;;;1.98;1.10;;;;;;;;;;4929062;28;92763;-76
2024/04/01 12:44:31;;;;;;;2.83;1.40;;;;;;;;;;4928608;28;93337;-76
2024/04/01 12:46:57;;;;;;;2.53;1.40;;;;;;;;;;4929151;28;92810;-76
2024/04/01 12:49:24;;;;;;;2.38;1.20;;;;;;;;;;4944386;28;92833;-76
2024/04/01 12:51:50;;;;;;;2.10;1.30;;;;;;;;;;4947498;28;92411;-76
2024/04/01 12:54:40;;;;;;;2.15;1.00;;;;;;;;;;4931942;28;93169;-76
2024/04/01 12:57:12;;;;;;;2.10;1.05;;;;;;;;;;4930014;28;94681;-76
2024/04/01 12:59:56;;;;;;;2.03;1.10;;;;;;;;;;4909830;28;94919;-76
2024/04/01 13:02:51;;;;;;;2.80;1.10;;;;;;;;;;4938394;28;95291;-76
2024/04/01 13:05:22;;;;;;;1.60;1.10;;;;;;;;;;4929890;28;93305;-76
2024/04/01 13:07:54;;;;;;;3.55;1.38;;;;;;;;;;4947342;28;93093;-76
2024/04/01 13:10:23;;;;;;;2.75;1.15;;;;;;;;;;4947565;28;98224;-76
2024/04/01 13:13:07;;;;;;;2.50;1.10;;;;;;;;;;4947840;28;93686;-76
2024/04/01 13:15:51;;;;;;;1.20;1.00;;;;;;;;;;4947345;28;92913;-76
2024/04/01 13:18:32;;;;;;;3.25;1.30;;;;;;;;;;4937209;28;93064;-76
2024/04/01 13:21:15;;;;;;;2.25;1.13;;;;;;;;;;4928463;28;92697;-76
2024/04/01 13:24:01;;;;;;;2.47;1.17;;;;;;;;;;4932213;28;92984;-76
2024/04/01 13:26:32;;;;;;;4.25;1.25;;;;;;;;;;4946268;28;96042;-76
2024/04/01 13:28:59;;;;;;;3.67;1.63;;;;;;;;;;4948361;28;92830;-76
2024/04/01 13:31:32;;;;;;;2.88;1.17;;;;;;;;;;4947513;28;93411;-76
2024/04/01 13:34:13;;;;;;;3.35;1.38;;;;;;;;;;4946377;28;97862;-76
2024/04/01 13:37:15;;;;;;;2.80;1.10;;;;;;;;;;4947542;28;93180;-76
2024/04/01 13:39:48;;;;;;;2.20;1.00;;;;;;;;;;4929168;28;92842;-76
2024/04/01 13:42:16;;;;;;;2.35;1.02;;;;;;;;;;4927272;28;93378;-76
2024/04/01 13:44:41;;;;;;;3.20;1.30;;;;;;;;;;4928252;28;92857;-76
2024/04/01 13:47:25;;;;;;;3.47;1.10;;;;;;;;;;4928309;28;93100;-76
2024/04/01 13:49:51;;;;;;;1.77;1.10;;;;;;;;;;4946475;28;93056;-76
2024/04/01 13:52:36;;;;;;;3.88;1.20;;;;;;;;;;4946062;28;95182;-76
2024/04/01 13:55:02;;;;;;;;;;;;;;;;;;4931476;28;93053;-76
2024/04/01 13:57:27;;;;;;;;;;;;;;;;;;4948693;28;92557;-75
2024/04/01 13:59:58;;;;;;;3.15;1.20;;;;;;;;;;4948422;28;92506;-76
2024/04/01 14:02:28;;;;;;;1.58;1.00;;;;;;;;;;4947907;28;93623;-75
2024/04/01 14:05:12;;;;;;;2.08;1.20;;;;;;;;;;4953344;28;92854;-75
2024/04/01 14:07:38;;;;;;;3.65;1.10;;;;;;;;;;4949859;28;92981;-75
2024/04/01 14:10:10;;;;;;;1.50;1.00;;;;;;;;;;4951055;28;92300;-76
2024/04/01 14:12:45;;;;;;;2.08;1.00;;;;;;;;;;4951154;28;92979;-75
2024/04/01 14:15:18;;;;;;;3.35;1.10;;;;;;;;;;4949956;28;92792;-75
2024/04/01 14:17:50;;;;;;;3.20;1.20;;;;;;;;;;4928731;28;95263;-75
2024/04/01 14:20:31;;;;;;;2.97;1.17;;;;;;;;;;4937949;28;94568;-75
2024/04/01 14:22:57;;;;;;;2.78;1.00;;;;;;;;;;4950061;28;93217;-75
2024/04/01 14:25:23;;;;;;;3.42;1.20;;;;;;;;;;4950119;28;93196;-75
2024/04/01 14:27:48;;;;;;;2.03;1.00;;;;;;;;;;4952430;28;92951;-75
2024/04/01 14:30:14;;;;;;;1.52;1.00;;;;;;;;;;4949459;28;92881;-75
2024/04/01 14:32:40;;;;;;;3.40;1.10;;;;;;;;;;4950788;28;92787;-75
2024/04/01 14:35:08;;;;;;;1.63;1.20;;;;;;;;;;4950556;28;93432;-75
2024/04/01 14:37:34;;;;;;;2.55;1.23;;;;;;;;;;4949185;28;92985;-75
2024/04/01 14:40:00;;;;;;;2.28;1.15;;;;;;;;;;4950003;28;93771;-75
2024/04/01 14:42:26;;;;;;;2.67;1.17;;;;;;;;;;4948266;28;95976;-75
2024/04/01 14:44:51;;;;;;;2.63;1.30;;;;;;;;;;4949750;28;93036;-75
2024/04/01 14:47:17;;;;;;;1.92;1.20;;;;;;;;;;4949989;28;92869;-76
2024/04/01 14:49:43;;;;;;;1.92;1.10;;;;;;;;;;4951716;28;94213;-75
2024/04/01 14:52:09;;;;;;;1.90;1.10;;;;;;;;;;4949874;28;92720;-76